Historyczne dane pomiarowe

Dodano dane terminowe – wersja testowa.

Dane z okresu 1951-2019

Wersja bazy: 1.34 [2019-03-16, lista zmian], aktualizacja planowana na 2019-04-15

Dane meteo z obszaru Polski uzyskane na podstawie danych udostępnionych przez Instytut Meteorologii i Gospodarki Wodnej – Państwowy Instytut Badawczy.

 

Wybierz Datę:    

       

TemperaturaWilgotnośćZachmurzenieWiatrCiśnienieWidzialnośćZjawiska
 Data    tng td wb rh cc ccl cl cm ch dir g1 g2 mslp ppp      
1999-08-05 00:00:00 20.1--- 6.9 12.942wxwx2wx--1014.6 992.1 0.0---wx
1999-08-05 01:00:00 19.7--- 6.8 12.743wxwx1wx--1014.5 992.0----wx
1999-08-05 02:00:00 19.2--- 6.6 12.444wxwx1wx--1014.4 991.9----wx
1999-08-05 03:00:00 18.3--- 7.0 12.248wxwx1wx--1014.4 991.8----wx
1999-08-05 04:00:00 18.2--- 6.6 12.047wxwxwx1wx--1014.6 992.0----wx
1999-08-05 05:00:00 18.4--- 7.4 12.449wxwxwx2wx--1014.6 992.0----wx
1999-08-05 06:00:00 19.6--- 8.0 13.247wxwx2wx--1014.6 992.1 0.0---wx
1999-08-05 07:00:00 21.6--- 9.4 14.646wxwx2wx--1014.6 992.2----wx
1999-08-05 08:00:00 24.2--- 8.4 15.237wxwxwx2wx--1014.4 992.2----wx
1999-08-05 09:00:00 26.1--- 8.6 16.033wxwxwx3wx--1013.9 991.9----wx
1999-08-05 10:00:00 26.6--- 6.1 15.227wxwxwxwx4wx--1013.7 991.7----wx
1999-08-05 11:00:00 27.8--- 6.5 15.826wxwxwxwx3wx--1013.2 991.3----wx
1999-08-05 12:00:00 27.0--- 7.3 15.829wxwxwxwxwx4wx--1013.1 991.2 0.0---wx
1999-08-05 13:00:00 26.8--- 7.5 15.829wxwxwxwx2wx--1012.8 990.9----wx
1999-08-05 14:00:00 26.8--- 7.5 15.829wxwxwxwx3wx--1012.5 990.6----wx
1999-08-05 15:00:00 26.2--- 8.0 15.832wxwxwxwx2wx--1012.4 990.4----wx
1999-08-05 16:00:00 26.0--- 9.2 16.235wxwxwx1wx--1012.1 990.1----wx
1999-08-05 17:00:00 25.4--- 9.7 16.237wxwxwx1wx--1011.8 989.8----wx
1999-08-05 18:00:00 24.4--- 10.1 16.041wxwxwx1wx--1011.8 989.7 0.0---wx
1999-08-05 19:00:00 23.3--- 9.7 15.442wxwxwx1wx--1011.8 989.6----wx
1999-08-05 20:00:00 22.9--- 10.0 15.444wxwxwx1wx--1011.8 989.6----wx
1999-08-05 21:00:00 22.1--- 10.7 15.448wxwxwx1wx--1011.8 989.5----wx
1999-08-05 22:00:00 21.2--- 11.0 15.252wxwxwx1wx--1011.7 989.4----wx
1999-08-05 23:00:00 20.6--- 11.3 15.155wxwxwxwx1wx--1011.9 989.5----wx

 

Źródłem pochodzenia danych jest Instytut Meteorologii i Gospodarki Wodnej – Państwowy Instytut Badawczy. Dane Instytutu Meteorologii i Gospodarki Wodnej – Państwowego Instytutu Badawczego zostały przetworzone.

Dane źródłowe można odnaleźć na stronie https://dane.imgw.pl